Air Resources Laboratory banner image
Air Resources Laboratory web site National Oceanic and Atmospheric Administration (NOAA)

sd metar


K2WX 211956Z AUTO 25009KT 15/M04 A2995 RMK AO1 SLP149 T01501039=
K8D3 211956Z AUTO 14012KT M03/M06 A3019 RMK AO1 SLP252 T10281056=
K9V9 211955Z AUTO 00000KT 10SM CLR 10/00 A3004 RMK AO2 T00960000=
KABR 211953Z AUTO 09011KT 8SM OVC009 M01/M04 A3014 RMK AO2 SLP224 T10111039=
KATY 211953Z AUTO 11007KT 6SM BR OVC005 M02/M03 A3012 RMK AO2 SLP223 T10221028=
KBKX 211956Z AUTO 12011KT 4SM BR OVC004 M01/M01 A3012 RMK AO2 SLP233 T10061011
 FZRANO=
KCUT 211953Z AUTO 26007KT 10SM CLR 14/M10 A3005 RMK AO2 SLP151 T01391100=
KD07 211956Z AUTO 18004KT 12/M02 A3000 RMK AO1 SLP173 T01171017=
KFSD 211956Z 11012KT 9SM SCT010 03/00 A3011 RMK AO2 SLP214 T00330000=
KHON 211955Z AUTO 16008KT 10SM FEW019 06/00 A3009 RMK AO2 SLP202 T00560000=
KIEN 211952Z AUTO 25012KT 9SM CLR 16/M07 A3004 RMK AO2 SLP179 T01611067=
KLUD 211955Z AUTO 00000KT 10SM CLR 16/00 A3029 RMK AO2 T01550000=
KMBG 211952Z AUTO 11007KT 8SM OVC004 01/M01 A3005 RMK AO2 SLP194 T00061006=
KMHE 211953Z AUTO 12007KT 10SM CLR 08/01 A3008 RMK AO2 SLP199 T00780006=
KPHP 211955Z AUTO 24003KT 10SM CLR 16/M02 A3001 RMK AO2 SLP169 T01561017=
KPIR 211953Z AUTO 00000KT 10SM CLR 07/M01 A3004 RMK AO2 SLP186 T00721006=
KRAP 211952Z 16009KT 10SM CLR 18/M06 A3001 RMK AO2 SLP166 T01781056=
KRCA 211956Z AUTO 16007KT 10SM CLR 18/M06 A3000 RMK AO2 SLP167 T01771056 $=
KSPF 211955Z AUTO 04005KT 10SM CLR 16/M05 A3002 RMK AO2 PWINO=
KYKN 211956Z AUTO 09010KT 10SM CLR 09/01 A3007 RMK AO2 SLP205 T00890011=